createdAt,value
2018-12-03T00:01:30.650Z,97.30
2018-12-03T00:04:05.481Z,109.43
2018-12-03T00:06:34.632Z,77.77
2018-12-03T00:09:03.605Z,92.53
2018-12-03T00:11:32.241Z,107.87
2018-12-03T00:14:00.972Z,87.80
2018-12-03T00:16:30.594Z,116.93
2018-12-03T00:19:00.326Z,113.13
2018-12-03T00:21:28.974Z,97.23
2018-12-03T00:23:57.638Z,76.60
2018-12-03T00:26:26.392Z,115.63
2018-12-03T00:28:55.226Z,109.63
2018-12-03T00:31:24.147Z,104.57
2018-12-03T00:33:52.930Z,83.90
2018-12-03T00:36:21.637Z,112.73
2018-12-03T00:38:50.273Z,106.87
2018-12-03T00:41:19.031Z,81.57
2018-12-03T00:43:47.746Z,104.30
2018-12-03T00:46:16.673Z,111.63
2018-12-03T00:48:45.266Z,109.80
2018-12-03T00:51:13.845Z,113.90
2018-12-03T00:53:42.601Z,120.10
2018-12-03T00:56:11.269Z,122.47
2018-12-03T00:58:39.978Z,123.27
2018-12-03T01:01:08.611Z,113.23
2018-12-03T01:03:37.422Z,63.00
2018-12-03T01:06:07.042Z,90.13
2018-12-03T01:08:35.691Z,105.00
2018-12-03T01:11:04.421Z,106.67
2018-12-03T01:13:33.055Z,85.03
2018-12-03T01:16:01.649Z,114.70
2018-12-03T01:18:30.323Z,112.10
2018-12-03T01:20:59.001Z,86.80
2018-12-03T01:23:27.587Z,110.17
2018-12-03T01:25:56.282Z,114.47
2018-12-03T01:28:24.988Z,113.37
2018-12-03T01:30:53.701Z,111.90
2018-12-03T01:33:22.342Z,107.03
2018-12-03T01:35:51.018Z,65.73
2018-12-03T01:38:19.847Z,84.37
2018-12-03T01:40:48.634Z,122.13
2018-12-03T01:43:17.282Z,121.17
2018-12-03T01:45:45.962Z,102.13
2018-12-03T01:48:14.641Z,71.27
2018-12-03T01:50:43.313Z,109.77
2018-12-03T01:53:12.037Z,103.57
2018-12-03T01:57:10.418Z,106.37
2018-12-03T01:59:39.173Z,126.90
2018-12-03T02:02:07.817Z,87.87
2018-12-03T02:04:36.440Z,92.43
2018-12-03T02:07:05.585Z,124.83
2018-12-03T02:09:34.254Z,125.73
2018-12-03T02:12:02.964Z,129.90
2018-12-03T02:14:31.741Z,109.97
2018-12-03T02:17:00.394Z,124.97
2018-12-03T02:19:29.065Z,106.27
2018-12-03T02:21:57.713Z,115.90
2018-12-03T02:24:26.334Z,76.57
2018-12-03T02:26:54.938Z,96.40
2018-12-03T02:29:23.641Z,109.07
2018-12-03T02:31:52.529Z,85.87
2018-12-03T02:34:21.197Z,112.57
2018-12-03T02:36:49.915Z,113.03
2018-12-03T02:39:18.537Z,86.67
2018-12-03T02:41:47.165Z,93.37
2018-12-03T02:44:15.814Z,109.37
2018-12-03T02:46:44.407Z,127.77
2018-12-03T02:49:13.105Z,86.20
2018-12-03T02:51:41.764Z,111.90
2018-12-03T02:54:10.353Z,111.50
2018-12-03T02:56:39.075Z,112.97
2018-12-03T02:59:07.859Z,121.03
2018-12-03T03:01:36.555Z,106.83
2018-12-03T03:04:05.613Z,98.33
2018-12-03T03:06:34.269Z,110.10
2018-12-03T03:09:03.723Z,76.40
2018-12-03T03:11:31.785Z,120.30
2018-12-03T03:14:00.421Z,123.50
2018-12-03T03:16:29.187Z,126.83
2018-12-03T03:18:57.830Z,102.00
2018-12-03T03:21:26.515Z,69.77
2018-12-03T03:23:55.205Z,148.33
2018-12-03T03:26:23.875Z,142.70
2018-12-03T03:28:52.605Z,140.23
2018-12-03T03:31:21.263Z,89.13
2018-12-03T03:33:49.915Z,138.00
2018-12-03T03:36:18.543Z,153.57
2018-12-03T03:38:47.244Z,83.57
2018-12-03T03:41:15.870Z,146.87
2018-12-03T03:43:44.502Z,157.83
2018-12-03T03:46:13.171Z,115.07
2018-12-03T03:48:41.856Z,106.47
2018-12-03T03:51:10.541Z,75.53
2018-12-03T03:53:39.222Z,89.03
2018-12-03T03:56:07.927Z,117.87
2018-12-03T03:58:36.590Z,156.97
2018-12-03T04:01:05.743Z,104.13
2018-12-03T04:03:34.474Z,167.67
2018-12-03T04:06:03.547Z,146.00
2018-12-03T04:08:32.298Z,94.87
2018-12-03T04:11:00.936Z,141.77
2018-12-03T04:13:29.628Z,117.83
2018-12-03T04:15:58.327Z,149.10
2018-12-03T04:18:26.977Z,117.57
2018-12-03T04:20:55.648Z,98.50
2018-12-03T04:23:24.273Z,133.37
2018-12-03T04:25:52.941Z,140.30
2018-12-03T04:28:21.602Z,117.03
2018-12-03T04:30:50.334Z,75.23
2018-12-03T04:33:18.965Z,136.60
2018-12-03T04:35:47.570Z,92.77
2018-12-03T04:38:16.434Z,102.30
2018-12-03T04:40:45.061Z,124.63
2018-12-03T04:43:13.761Z,106.60
2018-12-03T04:45:42.399Z,128.70
2018-12-03T04:48:11.117Z,108.67
2018-12-03T04:50:39.782Z,86.50
2018-12-03T04:53:08.504Z,94.93
2018-12-03T04:55:37.283Z,86.43
2018-12-03T04:58:06.325Z,110.97
2018-12-03T05:00:34.988Z,67.30
2018-12-03T05:03:03.666Z,94.10
2018-12-03T05:05:32.300Z,107.47
2018-12-03T05:08:00.932Z,118.70
2018-12-03T05:10:29.562Z,140.47
2018-12-03T05:12:58.300Z,100.13
2018-12-03T05:15:26.930Z,102.77
2018-12-03T05:17:55.779Z,101.37
2018-12-03T05:20:25.335Z,125.83
2018-12-03T05:22:54.018Z,97.43
2018-12-03T05:25:22.713Z,127.00
2018-12-03T05:27:51.420Z,79.93
2018-12-03T05:30:20.097Z,65.13
2018-12-03T05:32:48.825Z,119.07
2018-12-03T05:35:22.299Z,68.03
2018-12-03T05:37:50.955Z,86.60
2018-12-03T05:40:22.558Z,110.27
2018-12-03T05:42:51.213Z,88.80
2018-12-03T05:45:19.850Z,87.37
2018-12-03T05:47:48.556Z,96.83
2018-12-03T05:50:17.375Z,102.87
2018-12-03T05:52:47.108Z,93.80
2018-12-03T05:55:15.996Z,94.33
2018-12-03T05:57:45.326Z,114.63
2018-12-03T06:00:17.015Z,117.37
2018-12-03T06:02:45.707Z,61.93
2018-12-03T06:05:14.969Z,144.37
2018-12-03T06:07:43.590Z,125.97
2018-12-03T06:10:16.325Z,76.03
2018-12-03T06:12:45.035Z,94.83
2018-12-03T06:15:15.876Z,71.33
2018-12-03T06:17:45.018Z,105.90
2018-12-03T06:20:14.846Z,69.93
2018-12-03T06:22:43.531Z,50.93
2018-12-03T06:25:15.521Z,94.10
2018-12-03T06:27:44.194Z,120.33
2018-12-03T06:30:18.330Z,93.27
2018-12-03T06:32:47.004Z,112.00
2018-12-03T06:35:16.464Z,91.53
2018-12-03T06:37:45.129Z,77.80
2018-12-03T06:40:16.726Z,67.47
2018-12-03T06:42:45.382Z,120.20
2018-12-03T06:45:15.382Z,95.07
2018-12-03T06:47:51.085Z,103.23
2018-12-03T06:50:19.787Z,73.13
2018-12-03T06:52:48.447Z,66.37
2018-12-03T06:55:17.058Z,128.20
2018-12-03T06:57:45.871Z,91.20
2018-12-03T07:00:16.197Z,98.53
2018-12-03T07:02:46.104Z,93.40
2018-12-03T07:05:14.816Z,114.83
2018-12-03T07:07:44.625Z,58.20
2018-12-03T07:10:15.747Z,80.83
2018-12-03T07:12:45.152Z,99.87
2018-12-03T07:15:16.538Z,96.77
2018-12-03T07:17:45.261Z,113.47
2018-12-03T07:20:14.226Z,92.63
2018-12-03T07:22:42.887Z,72.70
2018-12-03T07:25:12.339Z,71.50
2018-12-03T07:27:41.198Z,81.63
2018-12-03T07:30:21.643Z,64.47
2018-12-03T07:32:50.957Z,79.50
2018-12-03T07:35:20.338Z,100.80
2018-12-03T07:37:49.975Z,104.47
2018-12-03T07:40:18.597Z,103.60
2018-12-03T07:42:47.390Z,103.03
2018-12-03T07:45:18.321Z,121.30
2018-12-03T07:47:47.024Z,96.80
2018-12-03T07:50:17.890Z,101.47
2018-12-03T07:52:46.678Z,110.00
2018-12-03T07:55:18.453Z,84.30
2018-12-03T07:58:06.973Z,97.13
2018-12-03T08:00:39.773Z,102.53
2018-12-03T08:03:09.134Z,80.20
2018-12-03T08:05:37.789Z,50.27
2018-12-03T08:08:08.223Z,92.07
2018-12-03T08:10:37.266Z,75.53
2018-12-03T08:13:07.963Z,79.03
2018-12-03T08:15:36.778Z,67.47
2018-12-03T08:18:08.493Z,66.00
2018-12-03T08:20:44.979Z,73.47
2018-12-03T08:23:19.641Z,83.77
2018-12-03T08:25:48.262Z,92.33
2018-12-03T08:28:16.997Z,72.17
2018-12-03T08:30:45.861Z,66.53
2018-12-03T08:33:14.499Z,54.37
2018-12-03T08:35:43.507Z,63.93
2018-12-03T08:38:12.220Z,64.27
2018-12-03T08:40:40.845Z,73.53
2018-12-03T08:43:09.763Z,68.47
2018-12-03T08:45:38.509Z,66.63
2018-12-03T08:48:07.750Z,54.13
2018-12-03T08:50:39.889Z,93.37
2018-12-03T08:53:10.186Z,39.70
2018-12-03T08:55:39.397Z,89.57
2018-12-03T08:58:12.727Z,74.93
2018-12-03T09:00:42.065Z,72.20
2018-12-03T09:03:20.498Z,58.10
2018-12-03T09:05:49.143Z,64.77
2018-12-03T09:08:18.236Z,61.60
2018-12-03T09:10:47.039Z,75.10
2018-12-03T09:13:18.228Z,79.13
2018-12-03T09:16:00.169Z,63.40
2018-12-03T09:18:34.250Z,66.67
2018-12-03T09:21:03.814Z,73.10
2018-12-03T09:23:32.474Z,76.90
2018-12-03T09:26:01.498Z,73.87
2018-12-03T09:28:30.253Z,65.30
2018-12-03T09:30:58.894Z,71.60
2018-12-03T09:33:27.489Z,74.83
2018-12-03T09:35:56.389Z,48.47
2018-12-03T09:38:25.071Z,59.33
2018-12-03T09:41:01.662Z,59.43
2018-12-03T09:43:30.875Z,74.77
2018-12-03T09:45:59.554Z,52.87
2018-12-03T09:48:28.175Z,59.17
2018-12-03T09:50:56.773Z,56.97
2018-12-03T09:53:25.390Z,69.93
2018-12-03T09:55:54.605Z,71.93
2018-12-03T09:58:24.210Z,77.57
2018-12-03T10:00:53.057Z,42.67
2018-12-03T10:03:31.409Z,49.97
2018-12-03T10:06:05.347Z,58.20
2018-12-03T10:08:34.411Z,49.87
2018-12-03T10:11:03.621Z,53.80
2018-12-03T10:13:33.139Z,54.87
2018-12-03T10:16:01.764Z,59.30
2018-12-03T10:18:30.474Z,37.47
2018-12-03T10:21:00.692Z,61.50
2018-12-03T10:23:29.596Z,59.53
2018-12-03T10:26:00.559Z,66.57
2018-12-03T10:28:29.536Z,54.10
2018-12-03T10:30:58.700Z,53.47
2018-12-03T10:33:33.125Z,43.07
2018-12-03T10:36:04.069Z,63.50
2018-12-03T10:38:37.645Z,50.20
2018-12-03T10:41:12.633Z,63.00
2018-12-03T10:43:41.285Z,60.90
2018-12-03T10:46:11.033Z,37.23
2018-12-03T10:48:39.659Z,43.47
2018-12-03T10:51:14.286Z,60.80
2018-12-03T10:53:42.970Z,67.83
2018-12-03T10:56:12.061Z,56.73
2018-12-03T10:58:42.947Z,45.87
2018-12-03T11:01:17.107Z,59.73
2018-12-03T11:03:51.153Z,45.43
2018-12-03T11:06:21.164Z,46.73
2018-12-03T11:08:49.955Z,55.10
2018-12-03T11:11:18.713Z,44.43
2018-12-03T11:13:47.422Z,38.20
2018-12-03T11:16:27.757Z,59.83
2018-12-03T11:18:56.871Z,29.13
2018-12-03T11:21:26.438Z,59.53
2018-12-03T11:23:55.140Z,54.83
2018-12-03T11:26:29.493Z,57.00
2018-12-03T11:28:58.471Z,39.80
2018-12-03T11:31:28.785Z,57.53
2018-12-03T11:33:57.581Z,52.37
2018-12-03T11:36:31.458Z,45.00
2018-12-03T11:39:08.769Z,37.20
2018-12-03T11:41:37.484Z,61.13
2018-12-03T11:44:07.021Z,67.17
2018-12-03T11:46:35.651Z,73.30
2018-12-03T11:49:04.398Z,67.83
2018-12-03T11:51:33.015Z,51.27
2018-12-03T11:54:01.653Z,69.57
2018-12-03T11:56:30.249Z,61.40
2018-12-03T11:58:58.845Z,52.63
2018-12-03T12:01:27.526Z,45.30
2018-12-03T12:03:56.297Z,68.33
2018-12-03T12:06:25.003Z,69.17
2018-12-03T12:08:53.669Z,81.27
2018-12-03T12:11:22.257Z,78.00
2018-12-03T12:13:50.957Z,75.90
2018-12-03T12:16:19.721Z,75.00
2018-12-03T12:18:48.355Z,63.00
2018-12-03T12:21:17.023Z,65.83
2018-12-03T12:23:45.726Z,57.17
2018-12-03T12:26:14.389Z,68.83
2018-12-03T12:28:43.195Z,64.43
2018-12-03T12:31:11.988Z,49.07
2018-12-03T12:33:40.634Z,62.67
2018-12-03T12:36:09.362Z,66.73
2018-12-03T12:38:38.034Z,72.70
2018-12-03T12:41:06.757Z,64.03
2018-12-03T12:43:35.374Z,66.57
2018-12-03T12:46:08.181Z,66.83
2018-12-03T12:48:36.817Z,70.00
2018-12-03T12:51:05.487Z,68.27
2018-12-03T12:53:34.153Z,71.80
2018-12-03T12:56:02.864Z,65.63
2018-12-03T12:58:31.605Z,72.17
2018-12-03T13:01:00.265Z,74.17
2018-12-03T13:03:29.049Z,49.67
2018-12-03T13:05:57.826Z,47.47
2018-12-03T13:08:26.432Z,62.90
2018-12-03T13:10:55.562Z,62.53
2018-12-03T13:13:24.177Z,69.30
2018-12-03T13:15:52.781Z,65.17
2018-12-03T13:18:21.437Z,58.53
2018-12-03T13:20:50.889Z,75.97
2018-12-03T13:23:19.550Z,73.93
2018-12-03T13:25:48.209Z,79.87
2018-12-03T13:28:16.838Z,72.23
2018-12-03T13:30:45.497Z,75.13
2018-12-03T13:33:14.148Z,76.40
2018-12-03T13:35:42.789Z,77.57
2018-12-03T13:38:11.538Z,66.57
2018-12-03T13:40:40.290Z,76.73
2018-12-03T13:43:09.096Z,73.53
2018-12-03T13:45:37.696Z,67.47
2018-12-03T13:48:07.086Z,59.67
2018-12-03T13:50:35.709Z,61.07
2018-12-03T13:53:04.465Z,61.93
2018-12-03T13:55:33.116Z,72.70
2018-12-03T13:58:01.797Z,65.00
2018-12-03T14:00:30.425Z,63.70
2018-12-03T14:03:08.273Z,58.20
2018-12-03T14:06:11.306Z,68.77
2018-12-03T14:08:50.603Z,60.20
2018-12-03T14:11:31.070Z,71.27
2018-12-03T14:14:36.705Z,62.63
2018-12-03T14:17:18.108Z,73.20
2018-12-03T14:19:52.741Z,72.10
2018-12-03T14:22:25.298Z,73.63
2018-12-03T14:24:54.181Z,83.97
2018-12-03T14:27:22.858Z,78.00
2018-12-03T14:29:51.573Z,60.70
2018-12-03T14:32:20.181Z,66.83
2018-12-03T14:34:48.779Z,71.20
2018-12-03T14:37:18.408Z,79.20
2018-12-03T14:39:47.062Z,53.27
2018-12-03T14:42:15.808Z,58.77
2018-12-03T14:44:44.425Z,52.37
2018-12-03T14:47:13.146Z,54.13
2018-12-03T14:49:41.813Z,68.93
2018-12-03T14:52:10.656Z,70.07
2018-12-03T14:54:39.246Z,62.53
2018-12-03T14:57:07.854Z,74.53
2018-12-03T14:59:36.502Z,47.13
2018-12-03T15:02:05.270Z,54.87
2018-12-03T15:04:33.925Z,61.80
2018-12-03T15:07:02.473Z,54.87
2018-12-03T15:09:31.235Z,53.87
2018-12-03T15:11:59.911Z,69.43
2018-12-03T15:14:28.549Z,67.57
2018-12-03T15:16:57.192Z,72.17
2018-12-03T15:19:25.848Z,53.53
2018-12-03T15:21:54.553Z,55.07
2018-12-03T15:24:23.233Z,54.93
2018-12-03T15:26:52.025Z,53.20
2018-12-03T15:29:20.649Z,68.77
2018-12-03T15:31:49.344Z,73.23
2018-12-03T15:34:18.081Z,72.23
2018-12-03T15:36:46.853Z,75.33
2018-12-03T15:39:15.501Z,73.60
2018-12-03T15:41:44.119Z,75.87
2018-12-03T15:44:12.821Z,52.17
2018-12-03T15:46:41.462Z,69.70
2018-12-03T15:49:10.125Z,70.67
2018-12-03T15:51:38.728Z,60.33
2018-12-03T15:54:07.337Z,66.40
2018-12-03T15:56:35.997Z,47.10
2018-12-03T15:59:04.569Z,54.03
2018-12-03T16:01:33.193Z,64.63
2018-12-03T16:04:01.966Z,54.47
2018-12-03T16:06:30.637Z,69.13
2018-12-03T16:08:59.416Z,72.90
2018-12-03T16:11:28.057Z,76.63
2018-12-03T16:13:56.736Z,63.27
2018-12-03T16:16:25.513Z,48.30
2018-12-03T16:18:54.148Z,60.80
2018-12-03T16:21:22.837Z,71.67
2018-12-03T16:23:51.549Z,63.27
2018-12-03T16:26:20.189Z,83.33
2018-12-03T16:28:48.809Z,86.80
2018-12-03T16:31:17.468Z,76.87
2018-12-03T16:33:46.125Z,72.43
2018-12-03T16:36:15.005Z,80.60
2018-12-03T16:38:43.624Z,81.77
2018-12-03T16:41:12.363Z,86.47
2018-12-03T16:43:41.138Z,56.47
2018-12-03T16:46:09.777Z,92.13
2018-12-03T16:48:38.385Z,74.07
2018-12-03T16:51:07.110Z,63.00
2018-12-03T16:53:35.770Z,67.90
2018-12-03T16:56:04.465Z,76.80
2018-12-03T16:58:33.113Z,43.37
2018-12-03T17:01:01.833Z,54.43
2018-12-03T17:03:30.510Z,71.77
2018-12-03T17:05:59.185Z,62.90
2018-12-03T17:08:27.933Z,69.47
2018-12-03T17:10:56.599Z,55.87
2018-12-03T17:13:25.221Z,91.67
2018-12-03T17:15:53.808Z,76.33
2018-12-03T17:18:22.402Z,66.83
2018-12-03T17:21:13.958Z,74.40
2018-12-03T17:23:55.177Z,80.30
2018-12-03T17:26:23.812Z,85.27
2018-12-03T17:28:52.486Z,92.57
2018-12-03T17:31:21.206Z,74.40
2018-12-03T17:33:49.853Z,94.20
2018-12-03T17:36:19.055Z,43.90
2018-12-03T17:38:48.640Z,78.87
2018-12-03T17:41:17.405Z,89.63
2018-12-03T17:43:46.009Z,71.30
2018-12-03T17:46:14.594Z,87.57
2018-12-03T17:48:43.302Z,120.10
2018-12-03T17:51:12.114Z,95.17
2018-12-03T17:53:40.954Z,88.00
2018-12-03T17:56:09.657Z,99.50
2018-12-03T17:58:38.382Z,87.87
2018-12-03T18:01:07.022Z,114.13
2018-12-03T18:03:35.765Z,106.87
2018-12-03T18:06:04.541Z,67.57
2018-12-03T18:08:33.310Z,115.13
2018-12-03T18:11:01.985Z,95.33
2018-12-03T18:13:30.673Z,99.80
2018-12-03T18:15:59.363Z,52.17
2018-12-03T18:18:28.262Z,97.77
2018-12-03T18:20:57.059Z,109.13
2018-12-03T18:23:25.724Z,60.53
2018-12-03T18:25:54.386Z,66.57
2018-12-03T18:28:23.061Z,93.10
2018-12-03T18:30:51.646Z,65.27
2018-12-03T18:33:20.326Z,97.77
2018-12-03T18:35:49.026Z,59.13
2018-12-03T18:39:20.653Z,93.37
2018-12-03T18:41:49.330Z,87.97
2018-12-03T18:44:17.925Z,73.53
2018-12-03T18:46:46.526Z,90.43
2018-12-03T18:49:22.793Z,104.63
2018-12-03T18:51:51.467Z,92.67
2018-12-03T18:54:20.133Z,91.17
2018-12-03T18:56:48.809Z,79.77
2018-12-03T18:59:17.425Z,82.00
2018-12-03T19:01:46.871Z,74.37
2018-12-03T19:04:16.487Z,73.77
2018-12-03T19:06:45.148Z,93.10
2018-12-03T19:09:13.818Z,77.20
2018-12-03T19:11:42.501Z,96.77
2018-12-03T19:14:11.206Z,67.40
2018-12-03T19:16:40.011Z,76.83
2018-12-03T19:19:08.669Z,97.13
2018-12-03T19:21:37.361Z,102.27
2018-12-03T19:24:06.096Z,86.87
2018-12-03T19:26:34.853Z,78.13
2018-12-03T19:29:03.497Z,104.93
2018-12-03T19:31:32.189Z,101.63
2018-12-03T19:34:00.849Z,76.93
2018-12-03T19:36:29.443Z,83.30
2018-12-03T19:38:58.025Z,102.10
2018-12-03T19:41:26.619Z,61.93
2018-12-03T19:43:55.303Z,97.97
2018-12-03T19:46:24.062Z,87.73
2018-12-03T19:48:53.037Z,66.23
2018-12-03T19:51:22.856Z,85.70
2018-12-03T19:53:50.556Z,69.07
2018-12-03T19:56:20.237Z,87.10
2018-12-03T19:58:50.743Z,95.60
2018-12-03T20:01:19.707Z,97.60
2018-12-03T20:03:48.500Z,90.27
2018-12-03T20:06:17.288Z,86.87
2018-12-03T20:08:45.953Z,85.60
2018-12-03T20:11:14.622Z,99.53
2018-12-03T20:13:43.454Z,91.83
2018-12-03T20:16:12.112Z,92.03
2018-12-03T20:18:40.857Z,99.10
2018-12-03T20:21:13.636Z,67.97
2018-12-03T20:23:47.246Z,69.57
2018-12-03T20:26:20.713Z,65.23
2018-12-03T20:28:55.902Z,59.87
2018-12-03T20:31:51.437Z,85.80
2018-12-03T20:34:35.110Z,86.90
2018-12-03T20:37:19.033Z,68.97
2018-12-03T20:39:57.215Z,79.50
2018-12-03T20:42:30.220Z,67.03
2018-12-03T20:45:12.222Z,51.53
2018-12-03T20:47:42.778Z,91.70
2018-12-03T20:50:20.416Z,96.63
2018-12-03T20:52:50.158Z,64.10
2018-12-03T20:55:23.245Z,105.47
2018-12-03T20:57:51.879Z,66.17
2018-12-03T21:00:21.193Z,92.10
2018-12-03T21:02:53.034Z,76.67
2018-12-03T21:05:21.621Z,70.30
2018-12-03T21:07:50.241Z,47.80
2018-12-03T21:10:18.939Z,48.90
2018-12-03T21:12:47.569Z,73.87
2018-12-03T21:15:16.229Z,95.27
2018-12-03T21:17:44.957Z,79.57
2018-12-03T21:20:22.602Z,69.90
2018-12-03T21:22:51.266Z,57.37
2018-12-03T21:25:19.898Z,46.47
2018-12-03T21:27:48.522Z,97.00
2018-12-03T21:30:17.324Z,60.90
2018-12-03T21:32:46.081Z,45.47
2018-12-03T21:35:14.887Z,87.07
2018-12-03T21:37:43.580Z,79.90
2018-12-03T21:40:12.225Z,87.93
2018-12-03T21:42:42.053Z,73.03
2018-12-03T21:45:10.738Z,67.20
2018-12-03T21:47:39.414Z,91.73
2018-12-03T21:50:08.121Z,64.57
2018-12-03T21:52:36.786Z,90.63
2018-12-03T21:55:06.785Z,57.67
2018-12-03T21:57:35.527Z,62.87
2018-12-03T22:00:04.641Z,64.83
2018-12-03T22:02:33.258Z,63.37
2018-12-03T22:05:02.004Z,69.73
2018-12-03T22:07:30.647Z,68.97
2018-12-03T22:09:59.449Z,52.33
2018-12-03T22:12:28.069Z,93.47
2018-12-03T22:14:56.677Z,64.03
2018-12-03T22:17:25.322Z,78.97
2018-12-03T22:19:53.946Z,62.80
2018-12-03T22:22:22.561Z,70.53
2018-12-03T22:24:51.299Z,82.00
2018-12-03T22:27:19.908Z,72.03
2018-12-03T22:29:48.602Z,78.73
2018-12-03T22:32:17.251Z,46.27
2018-12-03T22:34:45.997Z,79.17
2018-12-03T22:37:14.789Z,82.60
2018-12-03T22:39:46.383Z,80.17
2018-12-03T22:42:12.249Z,78.50
2018-12-03T22:44:40.893Z,82.57
2018-12-03T22:47:09.474Z,75.87
2018-12-03T22:49:38.085Z,72.00
2018-12-03T22:52:06.753Z,86.43
2018-12-03T22:54:35.345Z,98.67
2018-12-03T22:57:04.018Z,84.17
2018-12-03T22:59:32.588Z,88.70
2018-12-03T23:02:01.321Z,69.33
2018-12-03T23:04:30.022Z,83.77
2018-12-03T23:06:58.672Z,67.10
2018-12-03T23:09:27.357Z,70.53
2018-12-03T23:11:56.087Z,77.03
2018-12-03T23:14:24.696Z,63.53
2018-12-03T23:16:53.288Z,80.67
2018-12-03T23:19:22.214Z,64.43
2018-12-03T23:21:50.957Z,82.50
2018-12-03T23:24:19.545Z,74.83
2018-12-03T23:26:48.245Z,51.53
2018-12-03T23:29:17.065Z,56.80
2018-12-03T23:31:45.897Z,76.23
2018-12-03T23:34:14.637Z,60.83
2018-12-03T23:36:43.386Z,45.33
2018-12-03T23:39:12.008Z,71.20
2018-12-03T23:41:40.742Z,65.43
2018-12-03T23:44:09.409Z,50.00
2018-12-03T23:46:38.061Z,60.57
2018-12-03T23:49:06.698Z,72.93
2018-12-03T23:51:36.240Z,58.30
2018-12-03T23:54:04.073Z,76.13
2018-12-03T23:56:32.661Z,66.83
2018-12-03T23:59:01.393Z,69.00
